sensor_id;sensor_type;location;lat;lon;timestamp;temperature;humidity
23114;DHT22;11726;50.122;8.832;2023-02-19T00:01:20;11.00;99.90
23114;DHT22;11726;50.122;8.832;2023-02-19T00:03:50;11.00;99.90
23114;DHT22;11726;50.122;8.832;2023-02-19T00:06:19;11.10;99.90
23114;DHT22;11726;50.122;8.832;2023-02-19T00:08:46;11.00;99.90
23114;DHT22;11726;50.122;8.832;2023-02-19T00:11:16;11.00;99.90
23114;DHT22;11726;50.122;8.832;2023-02-19T00:13:45;11.00;99.90
23114;DHT22;11726;50.122;8.832;2023-02-19T00:16:19;10.90;99.90
23114;DHT22;11726;50.122;8.832;2023-02-19T00:18:45;10.90;99.90
23114;DHT22;11726;50.122;8.832;2023-02-19T00:21:13;10.90;99.90
23114;DHT22;11726;50.122;8.832;2023-02-19T00:23:39;10.90;99.90
23114;DHT22;11726;50.122;8.832;2023-02-19T00:26:10;10.90;99.90
23114;DHT22;11726;50.122;8.832;2023-02-19T00:28:45;10.90;99.90
23114;DHT22;11726;50.122;8.832;2023-02-19T00:31:16;10.80;99.90
23114;DHT22;11726;50.122;8.832;2023-02-19T00:33:45;10.80;99.90
23114;DHT22;11726;50.122;8.832;2023-02-19T00:36:12;10.90;99.90
23114;DHT22;11726;50.122;8.832;2023-02-19T00:38:40;10.90;99.90
23114;DHT22;11726;50.122;8.832;2023-02-19T00:41:08;10.90;99.90
23114;DHT22;11726;50.122;8.832;2023-02-19T00:43:54;10.90;99.90
23114;DHT22;11726;50.122;8.832;2023-02-19T00:46:26;10.90;99.90
23114;DHT22;11726;50.122;8.832;2023-02-19T00:48:53;10.90;99.90
23114;DHT22;11726;50.122;8.832;2023-02-19T00:51:22;10.90;99.90
23114;DHT22;11726;50.122;8.832;2023-02-19T00:53:49;10.90;99.90
23114;DHT22;11726;50.122;8.832;2023-02-19T00:56:17;10.90;99.90
23114;DHT22;11726;50.122;8.832;2023-02-19T00:58:43;10.90;99.90
23114;DHT22;11726;50.122;8.832;2023-02-19T01:01:10;10.90;99.90
23114;DHT22;11726;50.122;8.832;2023-02-19T01:03:38;10.90;99.90
23114;DHT22;11726;50.122;8.832;2023-02-19T01:06:08;10.90;99.90
23114;DHT22;11726;50.122;8.832;2023-02-19T01:08:35;10.90;99.90
23114;DHT22;11726;50.122;8.832;2023-02-19T01:11:03;10.80;99.90
23114;DHT22;11726;50.122;8.832;2023-02-19T01:13:30;10.80;99.90
23114;DHT22;11726;50.122;8.832;2023-02-19T01:16:15;10.90;99.90
23114;DHT22;11726;50.122;8.832;2023-02-19T01:18:43;10.90;99.90
23114;DHT22;11726;50.122;8.832;2023-02-19T01:21:20;10.90;99.90
23114;DHT22;11726;50.122;8.832;2023-02-19T01:23:48;10.90;99.90
23114;DHT22;11726;50.122;8.832;2023-02-19T01:26:18;10.80;99.90
23114;DHT22;11726;50.122;8.832;2023-02-19T01:28:46;10.90;99.90
23114;DHT22;11726;50.122;8.832;2023-02-19T01:31:16;10.90;99.90
23114;DHT22;11726;50.122;8.832;2023-02-19T01:33:45;10.90;99.90
23114;DHT22;11726;50.122;8.832;2023-02-19T01:36:12;10.90;99.90
23114;DHT22;11726;50.122;8.832;2023-02-19T01:38:39;10.90;99.90
23114;DHT22;11726;50.122;8.832;2023-02-19T01:41:08;10.90;99.90
23114;DHT22;11726;50.122;8.832;2023-02-19T01:44:04;10.90;99.90
23114;DHT22;11726;50.122;8.832;2023-02-19T01:46:35;10.90;99.90
23114;DHT22;11726;50.122;8.832;2023-02-19T01:49:07;11.00;99.90
23114;DHT22;11726;50.122;8.832;2023-02-19T01:51:38;10.90;99.90
23114;DHT22;11726;50.122;8.832;2023-02-19T01:54:06;10.90;99.90
23114;DHT22;11726;50.122;8.832;2023-02-19T01:56:35;10.90;99.90
23114;DHT22;11726;50.122;8.832;2023-02-19T01:59:04;10.90;99.90
23114;DHT22;11726;50.122;8.832;2023-02-19T02:01:32;10.90;99.90
23114;DHT22;11726;50.122;8.832;2023-02-19T02:03:58;10.90;99.90
23114;DHT22;11726;50.122;8.832;2023-02-19T02:06:40;10.90;99.90
23114;DHT22;11726;50.122;8.832;2023-02-19T02:09:08;10.80;99.90
23114;DHT22;11726;50.122;8.832;2023-02-19T02:11:54;10.90;99.90
23114;DHT22;11726;50.122;8.832;2023-02-19T02:14:24;10.80;99.90
23114;DHT22;11726;50.122;8.832;2023-02-19T02:22:18;10.80;99.90
23114;DHT22;11726;50.122;8.832;2023-02-19T02:30:46;10.70;99.90
23114;DHT22;11726;50.122;8.832;2023-02-19T02:34:08;10.70;99.90
23114;DHT22;11726;50.122;8.832;2023-02-19T02:36:24;10.80;99.90
23114;DHT22;11726;50.122;8.832;2023-02-19T02:38:53;10.80;99.90
23114;DHT22;11726;50.122;8.832;2023-02-19T02:41:21;10.80;99.90
23114;DHT22;11726;50.122;8.832;2023-02-19T02:43:47;10.70;99.90
23114;DHT22;11726;50.122;8.832;2023-02-19T02:46:18;10.70;99.90
23114;DHT22;11726;50.122;8.832;2023-02-19T02:48:54;10.60;99.90
23114;DHT22;11726;50.122;8.832;2023-02-19T02:56:52;10.50;99.90
23114;DHT22;11726;50.122;8.832;2023-02-19T02:59:22;10.40;99.90
23114;DHT22;11726;50.122;8.832;2023-02-19T03:01:56;10.50;99.90
23114;DHT22;11726;50.122;8.832;2023-02-19T03:07:38;10.50;99.90
23114;DHT22;11726;50.122;8.832;2023-02-19T03:10:10;10.60;99.90
23114;DHT22;11726;50.122;8.832;2023-02-19T03:12:39;10.50;99.90
23114;DHT22;11726;50.122;8.832;2023-02-19T03:15:32;10.50;99.90
23114;DHT22;11726;50.122;8.832;2023-02-19T03:18:20;10.50;99.90
23114;DHT22;11726;50.122;8.832;2023-02-19T03:21:07;10.50;99.90
23114;DHT22;11726;50.122;8.832;2023-02-19T03:23:36;10.50;99.90
23114;DHT22;11726;50.122;8.832;2023-02-19T03:26:23;10.50;99.90
23114;DHT22;11726;50.122;8.832;2023-02-19T03:28:51;10.50;99.90
23114;DHT22;11726;50.122;8.832;2023-02-19T03:31:37;10.60;99.90
23114;DHT22;11726;50.122;8.832;2023-02-19T03:34:10;10.60;99.90
23114;DHT22;11726;50.122;8.832;2023-02-19T03:37:05;10.60;99.90
23114;DHT22;11726;50.122;8.832;2023-02-19T03:39:28;10.60;99.90
23114;DHT22;11726;50.122;8.832;2023-02-19T03:44:45;10.60;99.90
23114;DHT22;11726;50.122;8.832;2023-02-19T03:47:29;10.60;99.90
23114;DHT22;11726;50.122;8.832;2023-02-19T03:50:17;10.60;99.90
23114;DHT22;11726;50.122;8.832;2023-02-19T03:53:26;10.60;99.90
23114;DHT22;11726;50.122;8.832;2023-02-19T03:56:26;10.60;99.90
23114;DHT22;11726;50.122;8.832;2023-02-19T04:01:30;10.50;99.90
23114;DHT22;11726;50.122;8.832;2023-02-19T04:04:05;10.50;99.90
23114;DHT22;11726;50.122;8.832;2023-02-19T04:06:35;10.50;99.90
23114;DHT22;11726;50.122;8.832;2023-02-19T04:09:05;10.50;99.90
23114;DHT22;11726;50.122;8.832;2023-02-19T04:11:34;10.60;99.90
23114;DHT22;11726;50.122;8.832;2023-02-19T04:14:09;10.60;99.90
23114;DHT22;11726;50.122;8.832;2023-02-19T04:16:40;10.60;99.90
23114;DHT22;11726;50.122;8.832;2023-02-19T04:19:11;10.60;99.90
23114;DHT22;11726;50.122;8.832;2023-02-19T04:21:39;10.60;99.90
23114;DHT22;11726;50.122;8.832;2023-02-19T04:24:13;10.60;99.90
23114;DHT22;11726;50.122;8.832;2023-02-19T04:26:42;10.50;99.90
23114;DHT22;11726;50.122;8.832;2023-02-19T04:29:10;10.50;99.90
23114;DHT22;11726;50.122;8.832;2023-02-19T04:31:37;10.50;99.90
23114;DHT22;11726;50.122;8.832;2023-02-19T04:34:03;10.40;99.90
23114;DHT22;11726;50.122;8.832;2023-02-19T04:36:31;10.30;99.90
23114;DHT22;11726;50.122;8.832;2023-02-19T04:38:58;10.30;99.90
23114;DHT22;11726;50.122;8.832;2023-02-19T04:41:25;10.30;99.90
23114;DHT22;11726;50.122;8.832;2023-02-19T04:43:51;10.30;99.90
23114;DHT22;11726;50.122;8.832;2023-02-19T04:46:18;10.30;99.90
23114;DHT22;11726;50.122;8.832;2023-02-19T04:48:45;10.30;99.90
23114;DHT22;11726;50.122;8.832;2023-02-19T04:51:12;10.30;99.90
23114;DHT22;11726;50.122;8.832;2023-02-19T04:53:39;10.40;99.90
23114;DHT22;11726;50.122;8.832;2023-02-19T04:56:07;10.40;99.90
23114;DHT22;11726;50.122;8.832;2023-02-19T04:58:34;10.30;99.90
23114;DHT22;11726;50.122;8.832;2023-02-19T05:01:01;10.30;99.90
23114;DHT22;11726;50.122;8.832;2023-02-19T05:03:28;10.30;99.90
23114;DHT22;11726;50.122;8.832;2023-02-19T05:05:55;10.30;99.90
23114;DHT22;11726;50.122;8.832;2023-02-19T05:08:22;10.30;99.90
23114;DHT22;11726;50.122;8.832;2023-02-19T05:10:48;10.40;99.90
23114;DHT22;11726;50.122;8.832;2023-02-19T05:13:15;10.40;99.90
23114;DHT22;11726;50.122;8.832;2023-02-19T05:15:42;10.50;99.90
23114;DHT22;11726;50.122;8.832;2023-02-19T05:18:08;10.50;99.90
23114;DHT22;11726;50.122;8.832;2023-02-19T05:20:35;10.50;99.90
23114;DHT22;11726;50.122;8.832;2023-02-19T05:23:02;10.50;99.90
23114;DHT22;11726;50.122;8.832;2023-02-19T05:25:28;10.60;99.90
23114;DHT22;11726;50.122;8.832;2023-02-19T05:27:55;10.60;99.90
23114;DHT22;11726;50.122;8.832;2023-02-19T05:30:47;10.60;99.90
23114;DHT22;11726;50.122;8.832;2023-02-19T05:33:15;10.70;99.90
23114;DHT22;11726;50.122;8.832;2023-02-19T05:35:47;10.70;99.90
23114;DHT22;11726;50.122;8.832;2023-02-19T05:38:15;10.70;99.90
23114;DHT22;11726;50.122;8.832;2023-02-19T05:40:42;10.70;99.90
23114;DHT22;11726;50.122;8.832;2023-02-19T05:43:10;10.60;99.90
23114;DHT22;11726;50.122;8.832;2023-02-19T05:45:37;10.70;99.90
23114;DHT22;11726;50.122;8.832;2023-02-19T05:48:04;10.70;99.90
23114;DHT22;11726;50.122;8.832;2023-02-19T05:50:33;10.80;99.90
23114;DHT22;11726;50.122;8.832;2023-02-19T05:53:00;10.80;99.90
23114;DHT22;11726;50.122;8.832;2023-02-19T05:55:28;10.70;99.90
23114;DHT22;11726;50.122;8.832;2023-02-19T05:57:54;10.80;99.90
23114;DHT22;11726;50.122;8.832;2023-02-19T06:00:21;10.70;99.90
23114;DHT22;11726;50.122;8.832;2023-02-19T06:02:48;10.80;99.90
23114;DHT22;11726;50.122;8.832;2023-02-19T06:05:15;10.80;99.90
23114;DHT22;11726;50.122;8.832;2023-02-19T06:07:41;10.80;99.90
23114;DHT22;11726;50.122;8.832;2023-02-19T06:10:09;10.80;99.90
23114;DHT22;11726;50.122;8.832;2023-02-19T06:12:36;10.90;99.90
23114;DHT22;11726;50.122;8.832;2023-02-19T06:15:04;10.90;99.90
23114;DHT22;11726;50.122;8.832;2023-02-19T06:17:32;10.90;99.90
23114;DHT22;11726;50.122;8.832;2023-02-19T06:19:59;10.90;99.90
23114;DHT22;11726;50.122;8.832;2023-02-19T06:22:26;10.90;99.90
23114;DHT22;11726;50.122;8.832;2023-02-19T06:24:53;10.90;99.90
23114;DHT22;11726;50.122;8.832;2023-02-19T06:27:19;10.80;99.90
23114;DHT22;11726;50.122;8.832;2023-02-19T06:29:46;10.90;99.90
23114;DHT22;11726;50.122;8.832;2023-02-19T06:32:13;10.90;99.90
23114;DHT22;11726;50.122;8.832;2023-02-19T06:34:39;10.90;99.90
23114;DHT22;11726;50.122;8.832;2023-02-19T06:37:06;10.90;99.90
23114;DHT22;11726;50.122;8.832;2023-02-19T06:39:33;10.90;99.90
23114;DHT22;11726;50.122;8.832;2023-02-19T06:41:59;10.90;99.90
23114;DHT22;11726;50.122;8.832;2023-02-19T06:44:26;10.90;99.90
23114;DHT22;11726;50.122;8.832;2023-02-19T06:46:55;10.80;99.90
23114;DHT22;11726;50.122;8.832;2023-02-19T06:49:22;10.90;99.90
23114;DHT22;11726;50.122;8.832;2023-02-19T06:51:48;10.90;99.90
23114;DHT22;11726;50.122;8.832;2023-02-19T06:54:15;10.80;99.90
23114;DHT22;11726;50.122;8.832;2023-02-19T06:56:42;10.80;99.90
23114;DHT22;11726;50.122;8.832;2023-02-19T06:59:13;10.80;99.90
23114;DHT22;11726;50.122;8.832;2023-02-19T07:01:43;10.80;99.90
23114;DHT22;11726;50.122;8.832;2023-02-19T07:04:10;10.70;99.90
23114;DHT22;11726;50.122;8.832;2023-02-19T07:06:37;10.50;99.90
23114;DHT22;11726;50.122;8.832;2023-02-19T07:09:05;10.60;99.90
23114;DHT22;11726;50.122;8.832;2023-02-19T07:11:34;10.60;99.90
23114;DHT22;11726;50.122;8.832;2023-02-19T07:14:03;10.60;99.90
23114;DHT22;11726;50.122;8.832;2023-02-19T07:16:30;10.60;99.90
23114;DHT22;11726;50.122;8.832;2023-02-19T07:18:57;10.50;99.90
23114;DHT22;11726;50.122;8.832;2023-02-19T07:21:25;10.50;99.90
23114;DHT22;11726;50.122;8.832;2023-02-19T07:23:52;10.50;99.90
23114;DHT22;11726;50.122;8.832;2023-02-19T07:26:20;10.50;99.90
23114;DHT22;11726;50.122;8.832;2023-02-19T07:28:48;10.50;99.90
23114;DHT22;11726;50.122;8.832;2023-02-19T07:31:17;10.50;99.90
23114;DHT22;11726;50.122;8.832;2023-02-19T07:33:45;10.50;99.90
23114;DHT22;11726;50.122;8.832;2023-02-19T07:36:13;10.60;99.90
23114;DHT22;11726;50.122;8.832;2023-02-19T07:38:39;10.70;99.90
23114;DHT22;11726;50.122;8.832;2023-02-19T07:41:06;10.60;99.90
23114;DHT22;11726;50.122;8.832;2023-02-19T07:43:35;10.70;99.90
23114;DHT22;11726;50.122;8.832;2023-02-19T07:46:04;10.60;99.90
23114;DHT22;11726;50.122;8.832;2023-02-19T07:48:30;10.60;99.90
23114;DHT22;11726;50.122;8.832;2023-02-19T07:50:59;10.60;99.90
23114;DHT22;11726;50.122;8.832;2023-02-19T07:53:26;10.60;99.90
23114;DHT22;11726;50.122;8.832;2023-02-19T07:55:58;10.50;99.90
23114;DHT22;11726;50.122;8.832;2023-02-19T07:58:24;10.50;99.90
23114;DHT22;11726;50.122;8.832;2023-02-19T08:00:51;10.40;99.90
23114;DHT22;11726;50.122;8.832;2023-02-19T08:03:18;10.40;99.90
23114;DHT22;11726;50.122;8.832;2023-02-19T08:05:45;10.40;99.90
23114;DHT22;11726;50.122;8.832;2023-02-19T08:08:13;10.40;99.90
23114;DHT22;11726;50.122;8.832;2023-02-19T08:10:40;10.50;99.90
23114;DHT22;11726;50.122;8.832;2023-02-19T08:13:27;10.40;99.90
23114;DHT22;11726;50.122;8.832;2023-02-19T08:16:09;10.50;99.90
23114;DHT22;11726;50.122;8.832;2023-02-19T08:18:48;10.50;99.90
23114;DHT22;11726;50.122;8.832;2023-02-19T08:21:15;10.50;99.90
23114;DHT22;11726;50.122;8.832;2023-02-19T08:23:43;10.50;99.90
23114;DHT22;11726;50.122;8.832;2023-02-19T08:26:11;10.50;99.90
23114;DHT22;11726;50.122;8.832;2023-02-19T08:28:38;10.60;99.90
23114;DHT22;11726;50.122;8.832;2023-02-19T08:31:06;10.50;99.90
23114;DHT22;11726;50.122;8.832;2023-02-19T08:33:33;10.60;99.90
23114;DHT22;11726;50.122;8.832;2023-02-19T08:36:02;10.70;99.90
23114;DHT22;11726;50.122;8.832;2023-02-19T08:38:34;10.60;99.90
23114;DHT22;11726;50.122;8.832;2023-02-19T08:41:06;10.50;99.90
23114;DHT22;11726;50.122;8.832;2023-02-19T08:43:34;10.40;99.90
23114;DHT22;11726;50.122;8.832;2023-02-19T08:46:01;10.40;99.90
23114;DHT22;11726;50.122;8.832;2023-02-19T08:48:27;10.30;99.90
23114;DHT22;11726;50.122;8.832;2023-02-19T08:50:56;10.30;99.90
23114;DHT22;11726;50.122;8.832;2023-02-19T08:53:23;10.20;99.90
23114;DHT22;11726;50.122;8.832;2023-02-19T08:55:51;10.10;99.90
23114;DHT22;11726;50.122;8.832;2023-02-19T08:58:18;10.20;99.90
23114;DHT22;11726;50.122;8.832;2023-02-19T09:00:44;10.10;99.90
23114;DHT22;11726;50.122;8.832;2023-02-19T09:03:11;10.20;99.90
23114;DHT22;11726;50.122;8.832;2023-02-19T09:05:38;10.20;99.90
23114;DHT22;11726;50.122;8.832;2023-02-19T09:08:05;10.30;99.90
23114;DHT22;11726;50.122;8.832;2023-02-19T09:10:32;10.30;99.90
23114;DHT22;11726;50.122;8.832;2023-02-19T09:12:58;10.30;99.90
23114;DHT22;11726;50.122;8.832;2023-02-19T09:15:25;10.40;99.90
23114;DHT22;11726;50.122;8.832;2023-02-19T09:17:54;10.40;99.90
23114;DHT22;11726;50.122;8.832;2023-02-19T09:20:20;10.40;99.90
23114;DHT22;11726;50.122;8.832;2023-02-19T09:22:47;10.50;99.90
23114;DHT22;11726;50.122;8.832;2023-02-19T09:25:14;10.60;99.90
23114;DHT22;11726;50.122;8.832;2023-02-19T09:27:40;10.70;99.90
23114;DHT22;11726;50.122;8.832;2023-02-19T09:30:07;10.80;99.90
23114;DHT22;11726;50.122;8.832;2023-02-19T09:32:34;10.80;99.90
23114;DHT22;11726;50.122;8.832;2023-02-19T09:35:00;10.80;99.90
23114;DHT22;11726;50.122;8.832;2023-02-19T09:37:28;10.70;99.90
23114;DHT22;11726;50.122;8.832;2023-02-19T09:39:54;10.70;99.90
23114;DHT22;11726;50.122;8.832;2023-02-19T09:42:23;10.70;99.90
23114;DHT22;11726;50.122;8.832;2023-02-19T09:44:53;10.80;99.90
23114;DHT22;11726;50.122;8.832;2023-02-19T09:47:23;10.70;99.90
23114;DHT22;11726;50.122;8.832;2023-02-19T09:49:53;10.80;99.90
23114;DHT22;11726;50.122;8.832;2023-02-19T09:52:34;10.80;99.90
23114;DHT22;11726;50.122;8.832;2023-02-19T09:55:12;10.80;99.90
23114;DHT22;11726;50.122;8.832;2023-02-19T09:57:39;10.80;99.90
23114;DHT22;11726;50.122;8.832;2023-02-19T10:00:24;10.80;99.90
23114;DHT22;11726;50.122;8.832;2023-02-19T10:02:53;10.70;99.90
23114;DHT22;11726;50.122;8.832;2023-02-19T10:05:21;10.70;99.90
23114;DHT22;11726;50.122;8.832;2023-02-19T10:07:51;10.80;99.90
23114;DHT22;11726;50.122;8.832;2023-02-19T10:10:26;10.80;99.90
23114;DHT22;11726;50.122;8.832;2023-02-19T10:13:01;10.70;99.90
23114;DHT22;11726;50.122;8.832;2023-02-19T10:15:38;10.80;99.90
23114;DHT22;11726;50.122;8.832;2023-02-19T10:18:07;10.80;99.90
23114;DHT22;11726;50.122;8.832;2023-02-19T10:20:36;10.80;99.90
23114;DHT22;11726;50.122;8.832;2023-02-19T10:23:05;10.80;99.90
23114;DHT22;11726;50.122;8.832;2023-02-19T10:25:33;10.80;99.90
23114;DHT22;11726;50.122;8.832;2023-02-19T10:28:01;10.80;99.90
23114;DHT22;11726;50.122;8.832;2023-02-19T10:30:30;10.80;99.90
23114;DHT22;11726;50.122;8.832;2023-02-19T10:33:13;10.80;99.90
23114;DHT22;11726;50.122;8.832;2023-02-19T10:36:06;10.80;99.90
23114;DHT22;11726;50.122;8.832;2023-02-19T10:38:38;10.80;99.90
23114;DHT22;11726;50.122;8.832;2023-02-19T10:41:07;10.80;99.90
23114;DHT22;11726;50.122;8.832;2023-02-19T10:43:39;10.80;99.90
23114;DHT22;11726;50.122;8.832;2023-02-19T10:46:16;10.70;99.90
23114;DHT22;11726;50.122;8.832;2023-02-19T10:49:05;10.60;99.90
23114;DHT22;11726;50.122;8.832;2023-02-19T10:51:40;10.60;99.90
23114;DHT22;11726;50.122;8.832;2023-02-19T10:54:16;10.60;99.90
23114;DHT22;11726;50.122;8.832;2023-02-19T10:56:44;10.70;99.90
23114;DHT22;11726;50.122;8.832;2023-02-19T10:59:26;10.60;99.90
23114;DHT22;11726;50.122;8.832;2023-02-19T11:04:20;10.70;99.90
23114;DHT22;11726;50.122;8.832;2023-02-19T11:06:47;10.70;99.90
23114;DHT22;11726;50.122;8.832;2023-02-19T11:09:24;10.80;99.90
23114;DHT22;11726;50.122;8.832;2023-02-19T11:11:53;10.80;99.90
23114;DHT22;11726;50.122;8.832;2023-02-19T11:14:21;10.90;99.90
23114;DHT22;11726;50.122;8.832;2023-02-19T11:16:55;10.90;99.90
23114;DHT22;11726;50.122;8.832;2023-02-19T11:19:38;10.90;99.90
23114;DHT22;11726;50.122;8.832;2023-02-19T11:22:30;11.00;99.90
23114;DHT22;11726;50.122;8.832;2023-02-19T11:25:17;11.10;99.90
23114;DHT22;11726;50.122;8.832;2023-02-19T11:27:59;11.10;99.90
23114;DHT22;11726;50.122;8.832;2023-02-19T11:35:42;11.30;99.90
23114;DHT22;11726;50.122;8.832;2023-02-19T11:38:12;11.40;99.90
23114;DHT22;11726;50.122;8.832;2023-02-19T11:40:53;11.50;99.90
23114;DHT22;11726;50.122;8.832;2023-02-19T11:48:59;12.10;99.90
23114;DHT22;11726;50.122;8.832;2023-02-19T11:51:49;12.10;99.90
23114;DHT22;11726;50.122;8.832;2023-02-19T11:54:43;12.50;99.90
23114;DHT22;11726;50.122;8.832;2023-02-19T12:00:23;12.50;99.90
23114;DHT22;11726;50.122;8.832;2023-02-19T12:03:25;12.30;99.90
23114;DHT22;11726;50.122;8.832;2023-02-19T12:12:17;11.80;99.90
23114;DHT22;11726;50.122;8.832;2023-02-19T12:14:57;11.70;99.90
23114;DHT22;11726;50.122;8.832;2023-02-19T12:25:55;12.50;99.90
23114;DHT22;11726;50.122;8.832;2023-02-19T12:28:45;12.70;99.90
23114;DHT22;11726;50.122;8.832;2023-02-19T12:34:40;13.00;99.90
23114;DHT22;11726;50.122;8.832;2023-02-19T12:37:25;12.80;99.90
23114;DHT22;11726;50.122;8.832;2023-02-19T12:45:34;12.30;99.90
23114;DHT22;11726;50.122;8.832;2023-02-19T12:50:55;12.30;99.90
23114;DHT22;11726;50.122;8.832;2023-02-19T12:53:48;12.20;99.90
23114;DHT22;11726;50.122;8.832;2023-02-19T12:56:35;12.10;99.90
23114;DHT22;11726;50.122;8.832;2023-02-19T12:59:14;12.00;99.90
23114;DHT22;11726;50.122;8.832;2023-02-19T13:01:48;12.00;99.90
23114;DHT22;11726;50.122;8.832;2023-02-19T13:04:28;12.00;99.90
23114;DHT22;11726;50.122;8.832;2023-02-19T13:09:50;11.80;99.90
23114;DHT22;11726;50.122;8.832;2023-02-19T13:12:25;11.70;99.90
23114;DHT22;11726;50.122;8.832;2023-02-19T13:14:58;11.80;99.90
23114;DHT22;11726;50.122;8.832;2023-02-19T13:17:46;11.80;99.90
23114;DHT22;11726;50.122;8.832;2023-02-19T13:20:24;11.90;99.90
23114;DHT22;11726;50.122;8.832;2023-02-19T13:23:15;12.10;99.90
23114;DHT22;11726;50.122;8.832;2023-02-19T13:32:08;12.20;99.90
23114;DHT22;11726;50.122;8.832;2023-02-19T13:37:48;12.10;99.90
23114;DHT22;11726;50.122;8.832;2023-02-19T13:40:26;12.20;99.90
23114;DHT22;11726;50.122;8.832;2023-02-19T13:43:01;12.20;99.90
23114;DHT22;11726;50.122;8.832;2023-02-19T13:45:38;12.20;99.90
23114;DHT22;11726;50.122;8.832;2023-02-19T13:48:26;12.20;99.90
23114;DHT22;11726;50.122;8.832;2023-02-19T13:59:37;12.10;99.90
23114;DHT22;11726;50.122;8.832;2023-02-19T14:02:10;12.10;99.90
23114;DHT22;11726;50.122;8.832;2023-02-19T14:14:44;12.30;99.90
23114;DHT22;11726;50.122;8.832;2023-02-19T14:17:44;12.20;99.90
23114;DHT22;11726;50.122;8.832;2023-02-19T14:22:57;12.30;99.90
23114;DHT22;11726;50.122;8.832;2023-02-19T14:33:46;12.20;99.90
23114;DHT22;11726;50.122;8.832;2023-02-19T14:36:19;12.20;99.90
23114;DHT22;11726;50.122;8.832;2023-02-19T14:38:57;12.20;99.90
23114;DHT22;11726;50.122;8.832;2023-02-19T14:41:25;12.20;99.90
23114;DHT22;11726;50.122;8.832;2023-02-19T14:43:54;12.20;99.90
23114;DHT22;11726;50.122;8.832;2023-02-19T14:46:30;12.20;99.90
23114;DHT22;11726;50.122;8.832;2023-02-19T14:49:06;12.20;99.90
23114;DHT22;11726;50.122;8.832;2023-02-19T14:51:40;12.10;99.90
23114;DHT22;11726;50.122;8.832;2023-02-19T14:54:18;12.00;99.90
23114;DHT22;11726;50.122;8.832;2023-02-19T14:56:47;12.00;99.90
23114;DHT22;11726;50.122;8.832;2023-02-19T15:01:56;11.90;99.90
23114;DHT22;11726;50.122;8.832;2023-02-19T15:04:25;11.90;99.90
23114;DHT22;11726;50.122;8.832;2023-02-19T15:06:53;11.80;99.90
23114;DHT22;11726;50.122;8.832;2023-02-19T15:09:31;11.90;99.90
23114;DHT22;11726;50.122;8.832;2023-02-19T15:11:59;11.90;99.90
23114;DHT22;11726;50.122;8.832;2023-02-19T15:14:28;12.00;99.90
23114;DHT22;11726;50.122;8.832;2023-02-19T15:17:02;12.00;99.90
23114;DHT22;11726;50.122;8.832;2023-02-19T15:19:33;11.90;99.90
23114;DHT22;11726;50.122;8.832;2023-02-19T15:22:01;12.00;99.90
23114;DHT22;11726;50.122;8.832;2023-02-19T15:24:28;12.00;99.90
23114;DHT22;11726;50.122;8.832;2023-02-19T15:26:55;12.00;99.90
23114;DHT22;11726;50.122;8.832;2023-02-19T15:29:24;11.80;99.90
23114;DHT22;11726;50.122;8.832;2023-02-19T15:31:52;11.80;99.90
23114;DHT22;11726;50.122;8.832;2023-02-19T15:34:20;11.80;99.90
23114;DHT22;11726;50.122;8.832;2023-02-19T15:36:49;11.70;99.90
23114;DHT22;11726;50.122;8.832;2023-02-19T15:39:23;11.70;99.90
23114;DHT22;11726;50.122;8.832;2023-02-19T15:41:53;11.70;99.90
23114;DHT22;11726;50.122;8.832;2023-02-19T15:44:39;11.70;99.90
23114;DHT22;11726;50.122;8.832;2023-02-19T15:47:17;11.70;99.90
23114;DHT22;11726;50.122;8.832;2023-02-19T15:50:08;11.60;99.90
23114;DHT22;11726;50.122;8.832;2023-02-19T15:52:49;11.60;99.90
23114;DHT22;11726;50.122;8.832;2023-02-19T15:55:28;11.60;99.90
23114;DHT22;11726;50.122;8.832;2023-02-19T15:58:21;11.60;99.90
23114;DHT22;11726;50.122;8.832;2023-02-19T16:00:58;11.60;99.90
23114;DHT22;11726;50.122;8.832;2023-02-19T16:03:28;11.50;99.90
23114;DHT22;11726;50.122;8.832;2023-02-19T16:06:04;11.50;99.90
23114;DHT22;11726;50.122;8.832;2023-02-19T16:08:39;11.50;99.90
23114;DHT22;11726;50.122;8.832;2023-02-19T16:11:38;11.50;99.90
23114;DHT22;11726;50.122;8.832;2023-02-19T16:14:28;11.40;99.90
23114;DHT22;11726;50.122;8.832;2023-02-19T16:19:53;11.50;99.90
23114;DHT22;11726;50.122;8.832;2023-02-19T16:22:25;11.40;99.90
23114;DHT22;11726;50.122;8.832;2023-02-19T16:24:57;11.40;99.90
23114;DHT22;11726;50.122;8.832;2023-02-19T16:27:34;11.40;99.90
23114;DHT22;11726;50.122;8.832;2023-02-19T16:32:44;11.30;99.90
23114;DHT22;11726;50.122;8.832;2023-02-19T16:35:36;11.20;99.90
23114;DHT22;11726;50.122;8.832;2023-02-19T16:38:19;11.20;99.90
23114;DHT22;11726;50.122;8.832;2023-02-19T16:43:36;11.30;99.90
23114;DHT22;11726;50.122;8.832;2023-02-19T16:46:05;11.20;99.90
23114;DHT22;11726;50.122;8.832;2023-02-19T16:48:32;11.20;99.90
23114;DHT22;11726;50.122;8.832;2023-02-19T16:50:59;11.20;99.90
23114;DHT22;11726;50.122;8.832;2023-02-19T16:53:26;11.10;99.90
23114;DHT22;11726;50.122;8.832;2023-02-19T16:55:55;11.10;99.90
23114;DHT22;11726;50.122;8.832;2023-02-19T16:58:22;11.00;99.90
23114;DHT22;11726;50.122;8.832;2023-02-19T17:00:49;11.00;99.90
23114;DHT22;11726;50.122;8.832;2023-02-19T17:03:19;11.10;99.90
23114;DHT22;11726;50.122;8.832;2023-02-19T17:05:46;11.00;99.90
23114;DHT22;11726;50.122;8.832;2023-02-19T17:08:35;11.00;99.90
23114;DHT22;11726;50.122;8.832;2023-02-19T17:11:05;11.10;99.90
23114;DHT22;11726;50.122;8.832;2023-02-19T17:13:32;11.00;99.90
23114;DHT22;11726;50.122;8.832;2023-02-19T17:15:58;11.00;99.90
23114;DHT22;11726;50.122;8.832;2023-02-19T17:18:25;11.00;99.90
23114;DHT22;11726;50.122;8.832;2023-02-19T17:21:09;11.00;99.90
23114;DHT22;11726;50.122;8.832;2023-02-19T17:23:37;10.90;99.90
23114;DHT22;11726;50.122;8.832;2023-02-19T17:26:04;10.90;99.90
23114;DHT22;11726;50.122;8.832;2023-02-19T17:28:31;10.80;99.90
23114;DHT22;11726;50.122;8.832;2023-02-19T17:30:57;10.90;99.90
23114;DHT22;11726;50.122;8.832;2023-02-19T17:33:24;11.00;99.90
23114;DHT22;11726;50.122;8.832;2023-02-19T17:35:50;10.90;99.90
23114;DHT22;11726;50.122;8.832;2023-02-19T17:38:17;10.90;99.90
23114;DHT22;11726;50.122;8.832;2023-02-19T17:40:43;10.80;99.90
23114;DHT22;11726;50.122;8.832;2023-02-19T17:43:10;10.90;99.90
23114;DHT22;11726;50.122;8.832;2023-02-19T17:45:37;10.90;99.90
23114;DHT22;11726;50.122;8.832;2023-02-19T17:48:04;10.90;99.90
23114;DHT22;11726;50.122;8.832;2023-02-19T17:50:31;10.80;99.90
23114;DHT22;11726;50.122;8.832;2023-02-19T17:52:58;10.80;99.90
23114;DHT22;11726;50.122;8.832;2023-02-19T17:55:25;10.80;99.90
23114;DHT22;11726;50.122;8.832;2023-02-19T17:57:52;10.70;99.90
23114;DHT22;11726;50.122;8.832;2023-02-19T18:00:21;10.70;99.90